sensor_id;sensor_type;location;lat;lon;timestamp;pressure;altitude;pressure_sealevel;temperature;humidity
48888;BME280;42598;53.802;-1.632;2023-02-11T00:00:46;102270.31;;;8.23;100.00
48888;BME280;42598;53.802;-1.632;2023-02-11T00:03:13;102272.82;;;6.72;100.00
48888;BME280;42598;53.802;-1.632;2023-02-11T00:05:39;102285.56;;;7.15;100.00
48888;BME280;42598;53.802;-1.632;2023-02-11T00:08:06;102284.46;;;6.85;100.00
48888;BME280;42598;53.802;-1.632;2023-02-11T00:10:33;102288.15;;;6.37;100.00
48888;BME280;42598;53.802;-1.632;2023-02-11T00:13:01;102286.91;;;6.55;100.00
48888;BME280;42598;53.802;-1.632;2023-02-11T00:15:28;102281.32;;;6.33;100.00
48888;BME280;42598;53.802;-1.632;2023-02-11T00:17:55;102284.25;;;7.12;100.00
48888;BME280;42598;53.802;-1.632;2023-02-11T00:20:22;102273.06;;;6.84;100.00
48888;BME280;42598;53.802;-1.632;2023-02-11T00:22:49;102274.29;;;7.03;100.00
48888;BME280;42598;53.802;-1.632;2023-02-11T00:25:15;102274.80;;;6.19;100.00
48888;BME280;42598;53.802;-1.632;2023-02-11T00:27:42;102259.43;;;6.66;100.00
48888;BME280;42598;53.802;-1.632;2023-02-11T00:30:10;102260.07;;;6.02;100.00
48888;BME280;42598;53.802;-1.632;2023-02-11T00:32:37;102263.32;;;6.14;100.00
48888;BME280;42598;53.802;-1.632;2023-02-11T00:35:05;102254.30;;;6.09;100.00
48888;BME280;42598;53.802;-1.632;2023-02-11T00:37:32;102246.50;;;5.86;100.00
48888;BME280;42598;53.802;-1.632;2023-02-11T00:39:59;102240.22;;;5.98;100.00
48888;BME280;42598;53.802;-1.632;2023-02-11T00:42:26;102249.10;;;6.11;100.00
48888;BME280;42598;53.802;-1.632;2023-02-11T00:44:53;102248.12;;;5.69;100.00
48888;BME280;42598;53.802;-1.632;2023-02-11T00:47:20;102243.39;;;5.68;100.00
48888;BME280;42598;53.802;-1.632;2023-02-11T00:49:47;102237.02;;;5.71;100.00
48888;BME280;42598;53.802;-1.632;2023-02-11T00:52:13;102237.94;;;5.48;100.00
48888;BME280;42598;53.802;-1.632;2023-02-11T00:54:40;102231.93;;;5.75;100.00
48888;BME280;42598;53.802;-1.632;2023-02-11T00:57:07;102227.33;;;5.38;100.00
48888;BME280;42598;53.802;-1.632;2023-02-11T00:59:34;102233.50;;;5.57;100.00
48888;BME280;42598;53.802;-1.632;2023-02-11T01:02:02;102221.87;;;5.64;100.00
48888;BME280;42598;53.802;-1.632;2023-02-11T01:04:29;102217.49;;;5.43;100.00
48888;BME280;42598;53.802;-1.632;2023-02-11T01:06:56;102215.34;;;5.65;100.00
48888;BME280;42598;53.802;-1.632;2023-02-11T01:09:23;102213.40;;;5.93;100.00
48888;BME280;42598;53.802;-1.632;2023-02-11T01:11:50;102218.02;;;5.98;100.00
48888;BME280;42598;53.802;-1.632;2023-02-11T01:14:16;102217.82;;;5.48;100.00
48888;BME280;42598;53.802;-1.632;2023-02-11T01:16:43;102210.30;;;5.01;100.00
48888;BME280;42598;53.802;-1.632;2023-02-11T01:19:11;102206.39;;;5.50;100.00
48888;BME280;42598;53.802;-1.632;2023-02-11T01:21:38;102208.98;;;5.69;100.00
48888;BME280;42598;53.802;-1.632;2023-02-11T01:24:05;102204.92;;;5.67;100.00
48888;BME280;42598;53.802;-1.632;2023-02-11T01:26:33;102205.11;;;5.27;100.00
48888;BME280;42598;53.802;-1.632;2023-02-11T01:29:00;102211.51;;;5.78;100.00
48888;BME280;42598;53.802;-1.632;2023-02-11T01:31:29;102205.47;;;5.51;100.00
48888;BME280;42598;53.802;-1.632;2023-02-11T01:33:56;102201.30;;;5.43;100.00
48888;BME280;42598;53.802;-1.632;2023-02-11T01:36:23;102201.46;;;5.44;100.00
48888;BME280;42598;53.802;-1.632;2023-02-11T01:38:50;102187.10;;;5.66;100.00
48888;BME280;42598;53.802;-1.632;2023-02-11T01:41:17;102190.55;;;5.81;100.00
48888;BME280;42598;53.802;-1.632;2023-02-11T01:43:46;102183.02;;;5.48;100.00
48888;BME280;42598;53.802;-1.632;2023-02-11T01:46:22;102180.65;;;5.41;100.00
48888;BME280;42598;53.802;-1.632;2023-02-11T01:48:53;102183.43;;;5.52;100.00
48888;BME280;42598;53.802;-1.632;2023-02-11T01:51:24;102180.98;;;5.55;100.00
48888;BME280;42598;53.802;-1.632;2023-02-11T01:53:54;102190.67;;;5.17;100.00
48888;BME280;42598;53.802;-1.632;2023-02-11T01:56:24;102193.45;;;5.62;100.00
48888;BME280;42598;53.802;-1.632;2023-02-11T01:58:57;102199.24;;;5.68;100.00
48888;BME280;42598;53.802;-1.632;2023-02-11T02:01:27;102211.76;;;5.79;100.00
48888;BME280;42598;53.802;-1.632;2023-02-11T02:04:00;102212.72;;;5.16;100.00
48888;BME280;42598;53.802;-1.632;2023-02-11T02:06:32;102216.65;;;5.52;100.00
48888;BME280;42598;53.802;-1.632;2023-02-11T02:09:04;102219.30;;;5.12;100.00
48888;BME280;42598;53.802;-1.632;2023-02-11T02:11:33;102219.60;;;5.72;100.00
48888;BME280;42598;53.802;-1.632;2023-02-11T02:14:00;102212.07;;;5.35;100.00
48888;BME280;42598;53.802;-1.632;2023-02-11T02:16:30;102210.39;;;5.50;100.00
48888;BME280;42598;53.802;-1.632;2023-02-11T02:19:18;102224.28;;;5.98;100.00
48888;BME280;42598;53.802;-1.632;2023-02-11T02:22:07;102222.54;;;6.07;100.00
48888;BME280;42598;53.802;-1.632;2023-02-11T02:24:57;102228.62;;;5.75;100.00
48888;BME280;42598;53.802;-1.632;2023-02-11T02:27:36;102232.08;;;5.58;100.00
48888;BME280;42598;53.802;-1.632;2023-02-11T02:30:43;102232.56;;;5.58;100.00
48888;BME280;42598;53.802;-1.632;2023-02-11T02:33:26;102239.83;;;6.16;100.00
48888;BME280;42598;53.802;-1.632;2023-02-11T02:36:03;102240.74;;;6.32;100.00
48888;BME280;42598;53.802;-1.632;2023-02-11T02:38:37;102241.79;;;6.55;100.00
48888;BME280;42598;53.802;-1.632;2023-02-11T02:41:08;102255.24;;;6.06;100.00
48888;BME280;42598;53.802;-1.632;2023-02-11T02:43:40;102248.01;;;6.06;100.00
48888;BME280;42598;53.802;-1.632;2023-02-11T02:46:11;102254.93;;;6.32;100.00
48888;BME280;42598;53.802;-1.632;2023-02-11T02:48:39;102250.15;;;6.93;100.00
48888;BME280;42598;53.802;-1.632;2023-02-11T02:51:16;102251.68;;;6.43;100.00
48888;BME280;42598;53.802;-1.632;2023-02-11T02:53:57;102260.24;;;6.47;100.00
48888;BME280;42598;53.802;-1.632;2023-02-11T02:56:31;102266.51;;;5.78;100.00
48888;BME280;42598;53.802;-1.632;2023-02-11T02:59:12;102267.77;;;5.93;100.00
48888;BME280;42598;53.802;-1.632;2023-02-11T03:01:52;102261.87;;;6.21;100.00
48888;BME280;42598;53.802;-1.632;2023-02-11T03:04:29;102262.13;;;6.64;100.00
48888;BME280;42598;53.802;-1.632;2023-02-11T03:07:04;102272.05;;;6.36;100.00
48888;BME280;42598;53.802;-1.632;2023-02-11T03:09:39;102277.65;;;7.15;100.00
48888;BME280;42598;53.802;-1.632;2023-02-11T03:12:09;102284.15;;;7.00;100.00
48888;BME280;42598;53.802;-1.632;2023-02-11T03:14:38;102281.98;;;7.57;100.00
48888;BME280;42598;53.802;-1.632;2023-02-11T03:17:07;102291.63;;;6.57;100.00
48888;BME280;42598;53.802;-1.632;2023-02-11T03:19:38;102290.14;;;7.95;100.00
48888;BME280;42598;53.802;-1.632;2023-02-11T03:22:10;102292.84;;;7.83;100.00
48888;BME280;42598;53.802;-1.632;2023-02-11T03:24:40;102293.63;;;8.10;100.00
48888;BME280;42598;53.802;-1.632;2023-02-11T03:27:14;102292.11;;;8.67;100.00
48888;BME280;42598;53.802;-1.632;2023-02-11T03:29:50;102295.74;;;7.21;100.00
48888;BME280;42598;53.802;-1.632;2023-02-11T03:32:22;102284.99;;;8.32;100.00
48888;BME280;42598;53.802;-1.632;2023-02-11T03:34:54;102288.66;;;6.84;100.00
48888;BME280;42598;53.802;-1.632;2023-02-11T03:37:27;102279.57;;;8.01;100.00
48888;BME280;42598;53.802;-1.632;2023-02-11T03:40:02;102277.26;;;9.18;98.62
48888;BME280;42598;53.802;-1.632;2023-02-11T03:42:34;102274.74;;;7.90;99.99
48888;BME280;42598;53.802;-1.632;2023-02-11T03:45:06;102283.41;;;7.51;100.00
48888;BME280;42598;53.802;-1.632;2023-02-11T03:47:38;102284.91;;;7.15;100.00
48888;BME280;42598;53.802;-1.632;2023-02-11T03:50:09;102288.52;;;7.41;100.00
48888;BME280;42598;53.802;-1.632;2023-02-11T03:52:38;102285.50;;;7.25;100.00
48888;BME280;42598;53.802;-1.632;2023-02-11T03:55:10;102285.87;;;8.07;100.00
48888;BME280;42598;53.802;-1.632;2023-02-11T03:57:39;102304.27;;;7.03;100.00
48888;BME280;42598;53.802;-1.632;2023-02-11T04:00:07;102295.58;;;7.82;99.11
48888;BME280;42598;53.802;-1.632;2023-02-11T04:02:36;102301.61;;;7.36;100.00
48888;BME280;42598;53.802;-1.632;2023-02-11T04:05:05;102302.12;;;8.06;97.82
48888;BME280;42598;53.802;-1.632;2023-02-11T04:07:34;102308.30;;;7.14;99.83
48888;BME280;42598;53.802;-1.632;2023-02-11T04:10:01;102310.06;;;7.38;100.00
48888;BME280;42598;53.802;-1.632;2023-02-11T04:12:28;102313.26;;;6.94;100.00
48888;BME280;42598;53.802;-1.632;2023-02-11T04:14:55;102305.18;;;7.77;99.98
48888;BME280;42598;53.802;-1.632;2023-02-11T04:17:22;102309.13;;;7.30;100.00
48888;BME280;42598;53.802;-1.632;2023-02-11T04:19:49;102307.41;;;6.42;100.00
48888;BME280;42598;53.802;-1.632;2023-02-11T04:22:16;102296.99;;;6.85;100.00
48888;BME280;42598;53.802;-1.632;2023-02-11T04:24:44;102307.48;;;7.25;100.00
48888;BME280;42598;53.802;-1.632;2023-02-11T04:27:11;102305.93;;;6.65;100.00
48888;BME280;42598;53.802;-1.632;2023-02-11T04:29:38;102311.31;;;6.99;100.00
48888;BME280;42598;53.802;-1.632;2023-02-11T04:32:05;102311.25;;;6.53;100.00
48888;BME280;42598;53.802;-1.632;2023-02-11T04:34:32;102313.11;;;6.52;100.00
48888;BME280;42598;53.802;-1.632;2023-02-11T04:36:59;102316.06;;;6.34;100.00
48888;BME280;42598;53.802;-1.632;2023-02-11T04:39:26;102312.44;;;6.17;100.00
48888;BME280;42598;53.802;-1.632;2023-02-11T04:41:53;102311.34;;;6.06;100.00
48888;BME280;42598;53.802;-1.632;2023-02-11T04:44:20;102305.12;;;6.00;100.00
48888;BME280;42598;53.802;-1.632;2023-02-11T04:46:47;102308.28;;;5.55;100.00
48888;BME280;42598;53.802;-1.632;2023-02-11T04:49:16;102301.46;;;5.57;100.00
48888;BME280;42598;53.802;-1.632;2023-02-11T04:51:44;102301.33;;;5.45;100.00
48888;BME280;42598;53.802;-1.632;2023-02-11T04:54:11;102293.00;;;5.86;100.00
48888;BME280;42598;53.802;-1.632;2023-02-11T04:56:39;102294.15;;;5.51;100.00
48888;BME280;42598;53.802;-1.632;2023-02-11T04:59:06;102295.40;;;6.47;100.00
48888;BME280;42598;53.802;-1.632;2023-02-11T05:01:33;102305.86;;;5.76;100.00
48888;BME280;42598;53.802;-1.632;2023-02-11T05:04:00;102309.50;;;7.11;100.00
48888;BME280;42598;53.802;-1.632;2023-02-11T05:06:27;102319.31;;;7.41;100.00
48888;BME280;42598;53.802;-1.632;2023-02-11T05:08:54;102323.76;;;8.38;98.94
48888;BME280;42598;53.802;-1.632;2023-02-11T05:11:22;102339.21;;;7.61;100.00
48888;BME280;42598;53.802;-1.632;2023-02-11T05:13:51;102347.69;;;6.99;100.00
48888;BME280;42598;53.802;-1.632;2023-02-11T05:16:18;102340.37;;;8.08;100.00
48888;BME280;42598;53.802;-1.632;2023-02-11T05:18:46;102338.66;;;8.19;98.13
48888;BME280;42598;53.802;-1.632;2023-02-11T05:21:15;102330.48;;;8.30;96.17
48888;BME280;42598;53.802;-1.632;2023-02-11T05:23:43;102334.43;;;7.82;99.13
48888;BME280;42598;53.802;-1.632;2023-02-11T05:26:10;102337.20;;;6.59;100.00
48888;BME280;42598;53.802;-1.632;2023-02-11T05:28:39;102334.63;;;6.49;100.00
48888;BME280;42598;53.802;-1.632;2023-02-11T05:31:07;102334.75;;;6.40;100.00
48888;BME280;42598;53.802;-1.632;2023-02-11T05:33:35;102341.36;;;6.90;100.00
48888;BME280;42598;53.802;-1.632;2023-02-11T05:36:05;102344.13;;;7.56;99.77
48888;BME280;42598;53.802;-1.632;2023-02-11T05:38:34;102348.89;;;7.80;98.56
48888;BME280;42598;53.802;-1.632;2023-02-11T05:41:03;102352.47;;;7.76;98.20
48888;BME280;42598;53.802;-1.632;2023-02-11T05:43:31;102348.50;;;8.76;94.14
48888;BME280;42598;53.802;-1.632;2023-02-11T05:45:58;102353.23;;;8.15;94.49
48888;BME280;42598;53.802;-1.632;2023-02-11T05:48:25;102357.01;;;8.57;94.19
48888;BME280;42598;53.802;-1.632;2023-02-11T05:50:52;102359.93;;;7.43;97.54
48888;BME280;42598;53.802;-1.632;2023-02-11T05:53:19;102360.43;;;8.74;93.24
48888;BME280;42598;53.802;-1.632;2023-02-11T05:55:45;102363.44;;;7.99;95.12
48888;BME280;42598;53.802;-1.632;2023-02-11T05:58:12;102373.78;;;8.78;94.55
48888;BME280;42598;53.802;-1.632;2023-02-11T06:00:47;102369.66;;;9.40;91.60
48888;BME280;42598;53.802;-1.632;2023-02-11T06:03:14;102365.26;;;8.09;95.49
48888;BME280;42598;53.802;-1.632;2023-02-11T06:05:41;102368.62;;;8.36;95.21
48888;BME280;42598;53.802;-1.632;2023-02-11T06:08:09;102373.08;;;8.48;93.14
48888;BME280;42598;53.802;-1.632;2023-02-11T06:10:37;102375.21;;;7.76;96.42
48888;BME280;42598;53.802;-1.632;2023-02-11T06:13:04;102378.53;;;7.23;98.92
48888;BME280;42598;53.802;-1.632;2023-02-11T06:15:32;102379.96;;;7.97;98.35
48888;BME280;42598;53.802;-1.632;2023-02-11T06:17:59;102385.22;;;7.99;95.74
48888;BME280;42598;53.802;-1.632;2023-02-11T06:20:26;102385.80;;;8.77;93.85
48888;BME280;42598;53.802;-1.632;2023-02-11T06:22:54;102392.91;;;7.76;97.47
48888;BME280;42598;53.802;-1.632;2023-02-11T06:25:21;102392.93;;;7.22;100.00
48888;BME280;42598;53.802;-1.632;2023-02-11T06:27:48;102394.81;;;6.38;100.00
48888;BME280;42598;53.802;-1.632;2023-02-11T06:30:15;102399.22;;;7.02;100.00
48888;BME280;42598;53.802;-1.632;2023-02-11T06:32:42;102401.70;;;7.03;100.00
48888;BME280;42598;53.802;-1.632;2023-02-11T06:35:09;102399.92;;;7.96;98.39
48888;BME280;42598;53.802;-1.632;2023-02-11T06:37:36;102401.22;;;7.03;99.79
48888;BME280;42598;53.802;-1.632;2023-02-11T06:40:04;102400.22;;;6.72;100.00
48888;BME280;42598;53.802;-1.632;2023-02-11T06:42:31;102398.46;;;7.39;100.00
48888;BME280;42598;53.802;-1.632;2023-02-11T06:44:58;102395.47;;;6.99;100.00
48888;BME280;42598;53.802;-1.632;2023-02-11T06:47:25;102400.66;;;6.27;100.00
48888;BME280;42598;53.802;-1.632;2023-02-11T06:49:52;102399.99;;;7.23;100.00
48888;BME280;42598;53.802;-1.632;2023-02-11T06:52:19;102404.10;;;6.66;100.00
48888;BME280;42598;53.802;-1.632;2023-02-11T06:54:46;102410.45;;;6.58;100.00
48888;BME280;42598;53.802;-1.632;2023-02-11T06:57:12;102407.08;;;7.89;98.74
48888;BME280;42598;53.802;-1.632;2023-02-11T06:59:40;102416.92;;;7.27;100.00
48888;BME280;42598;53.802;-1.632;2023-02-11T07:02:08;102416.05;;;6.91;100.00
48888;BME280;42598;53.802;-1.632;2023-02-11T07:04:35;102419.47;;;7.58;97.19
48888;BME280;42598;53.802;-1.632;2023-02-11T07:07:02;102415.82;;;6.51;100.00
48888;BME280;42598;53.802;-1.632;2023-02-11T07:09:30;102417.69;;;7.26;99.75
48888;BME280;42598;53.802;-1.632;2023-02-11T07:11:57;102414.02;;;7.17;100.00
48888;BME280;42598;53.802;-1.632;2023-02-11T07:14:25;102416.36;;;6.36;100.00
48888;BME280;42598;53.802;-1.632;2023-02-11T07:16:52;102412.83;;;7.34;100.00
48888;BME280;42598;53.802;-1.632;2023-02-11T07:19:18;102414.77;;;6.69;100.00
48888;BME280;42598;53.802;-1.632;2023-02-11T07:21:45;102421.22;;;7.20;100.00
48888;BME280;42598;53.802;-1.632;2023-02-11T07:24:13;102431.41;;;7.28;100.00
48888;BME280;42598;53.802;-1.632;2023-02-11T07:26:41;102436.27;;;7.32;99.64
48888;BME280;42598;53.802;-1.632;2023-02-11T07:29:08;102443.28;;;7.59;100.00
48888;BME280;42598;53.802;-1.632;2023-02-11T07:31:36;102446.46;;;7.67;97.22
48888;BME280;42598;53.802;-1.632;2023-02-11T07:34:03;102444.87;;;7.97;96.77
48888;BME280;42598;53.802;-1.632;2023-02-11T07:36:33;102444.60;;;7.30;100.00
48888;BME280;42598;53.802;-1.632;2023-02-11T07:39:00;102443.61;;;6.99;100.00
48888;BME280;42598;53.802;-1.632;2023-02-11T07:41:27;102441.01;;;6.53;100.00
48888;BME280;42598;53.802;-1.632;2023-02-11T07:43:54;102446.40;;;6.44;100.00
48888;BME280;42598;53.802;-1.632;2023-02-11T07:46:24;102448.52;;;6.61;100.00
48888;BME280;42598;53.802;-1.632;2023-02-11T07:48:52;102453.74;;;6.50;100.00
48888;BME280;42598;53.802;-1.632;2023-02-11T07:51:21;102456.57;;;5.74;100.00
48888;BME280;42598;53.802;-1.632;2023-02-11T07:53:49;102461.85;;;6.43;100.00
48888;BME280;42598;53.802;-1.632;2023-02-11T07:56:21;102462.12;;;6.71;100.00
48888;BME280;42598;53.802;-1.632;2023-02-11T07:58:49;102464.44;;;7.07;100.00
48888;BME280;42598;53.802;-1.632;2023-02-11T08:01:18;102463.21;;;6.07;100.00
48888;BME280;42598;53.802;-1.632;2023-02-11T08:03:46;102468.80;;;6.11;100.00
48888;BME280;42598;53.802;-1.632;2023-02-11T08:06:14;102470.93;;;6.05;100.00
48888;BME280;42598;53.802;-1.632;2023-02-11T08:08:42;102467.48;;;7.32;100.00
48888;BME280;42598;53.802;-1.632;2023-02-11T08:11:12;102472.60;;;6.25;100.00
48888;BME280;42598;53.802;-1.632;2023-02-11T08:13:40;102469.28;;;6.81;100.00
48888;BME280;42598;53.802;-1.632;2023-02-11T08:16:08;102469.99;;;6.83;100.00
48888;BME280;42598;53.802;-1.632;2023-02-11T08:18:42;102474.79;;;7.19;100.00
48888;BME280;42598;53.802;-1.632;2023-02-11T08:21:09;102478.90;;;7.22;100.00
48888;BME280;42598;53.802;-1.632;2023-02-11T08:23:38;102481.42;;;6.76;100.00
48888;BME280;42598;53.802;-1.632;2023-02-11T08:26:06;102485.51;;;6.82;100.00
48888;BME280;42598;53.802;-1.632;2023-02-11T08:28:35;102483.26;;;6.76;100.00
48888;BME280;42598;53.802;-1.632;2023-02-11T08:31:05;102479.89;;;7.04;100.00
48888;BME280;42598;53.802;-1.632;2023-02-11T08:33:38;102472.94;;;6.89;100.00
48888;BME280;42598;53.802;-1.632;2023-02-11T08:36:08;102474.20;;;6.40;100.00
48888;BME280;42598;53.802;-1.632;2023-02-11T08:38:35;102478.70;;;5.72;100.00
48888;BME280;42598;53.802;-1.632;2023-02-11T08:41:03;102485.12;;;6.22;100.00
48888;BME280;42598;53.802;-1.632;2023-02-11T08:43:31;102490.85;;;6.50;100.00
48888;BME280;42598;53.802;-1.632;2023-02-11T08:45:58;102493.10;;;6.98;100.00
48888;BME280;42598;53.802;-1.632;2023-02-11T08:48:25;102499.51;;;6.61;100.00
48888;BME280;42598;53.802;-1.632;2023-02-11T08:50:51;102497.82;;;7.28;100.00
48888;BME280;42598;53.802;-1.632;2023-02-11T08:53:18;102496.65;;;7.25;100.00
48888;BME280;42598;53.802;-1.632;2023-02-11T08:55:48;102499.30;;;6.99;100.00
48888;BME280;42598;53.802;-1.632;2023-02-11T08:58:16;102502.78;;;6.52;100.00
48888;BME280;42598;53.802;-1.632;2023-02-11T09:00:44;102498.76;;;6.35;100.00
48888;BME280;42598;53.802;-1.632;2023-02-11T09:03:10;102497.58;;;6.74;100.00
48888;BME280;42598;53.802;-1.632;2023-02-11T09:05:40;102503.41;;;7.21;100.00
48888;BME280;42598;53.802;-1.632;2023-02-11T09:08:08;102502.50;;;6.28;100.00
48888;BME280;42598;53.802;-1.632;2023-02-11T09:10:35;102502.44;;;7.41;100.00
48888;BME280;42598;53.802;-1.632;2023-02-11T09:13:03;102511.54;;;7.56;100.00
48888;BME280;42598;53.802;-1.632;2023-02-11T09:15:31;102514.43;;;7.19;100.00
48888;BME280;42598;53.802;-1.632;2023-02-11T09:17:58;102507.19;;;7.08;100.00
48888;BME280;42598;53.802;-1.632;2023-02-11T09:20:26;102506.65;;;7.30;100.00
48888;BME280;42598;53.802;-1.632;2023-02-11T09:22:56;102499.37;;;8.00;98.78
48888;BME280;42598;53.802;-1.632;2023-02-11T09:25:24;102500.27;;;7.23;99.91
48888;BME280;42598;53.802;-1.632;2023-02-11T09:27:51;102508.86;;;6.05;100.00
48888;BME280;42598;53.802;-1.632;2023-02-11T09:30:18;102511.07;;;6.99;100.00
48888;BME280;42598;53.802;-1.632;2023-02-11T09:32:46;102515.03;;;7.65;98.79
48888;BME280;42598;53.802;-1.632;2023-02-11T09:35:13;102514.51;;;7.35;97.98
48888;BME280;42598;53.802;-1.632;2023-02-11T09:37:40;102506.19;;;6.57;100.00
48888;BME280;42598;53.802;-1.632;2023-02-11T09:40:09;102498.90;;;6.44;100.00
48888;BME280;42598;53.802;-1.632;2023-02-11T09:42:43;102500.08;;;6.83;100.00
48888;BME280;42598;53.802;-1.632;2023-02-11T09:45:16;102491.77;;;6.74;100.00
48888;BME280;42598;53.802;-1.632;2023-02-11T09:47:49;102496.23;;;7.28;100.00
48888;BME280;42598;53.802;-1.632;2023-02-11T09:50:22;102499.61;;;7.57;99.23
48888;BME280;42598;53.802;-1.632;2023-02-11T09:52:55;102509.75;;;8.00;96.40
48888;BME280;42598;53.802;-1.632;2023-02-11T09:55:27;102517.77;;;7.71;96.15
48888;BME280;42598;53.802;-1.632;2023-02-11T09:57:56;102530.52;;;8.53;93.19
48888;BME280;42598;53.802;-1.632;2023-02-11T10:00:26;102534.30;;;8.80;91.21
48888;BME280;42598;53.802;-1.632;2023-02-11T10:03:03;102531.47;;;8.67;91.98
48888;BME280;42598;53.802;-1.632;2023-02-11T10:05:47;102535.46;;;8.52;92.64
48888;BME280;42598;53.802;-1.632;2023-02-11T10:08:25;102526.89;;;8.97;88.64
48888;BME280;42598;53.802;-1.632;2023-02-11T10:11:00;102529.50;;;8.94;88.73
48888;BME280;42598;53.802;-1.632;2023-02-11T10:13:45;102528.59;;;9.11;87.17
48888;BME280;42598;53.802;-1.632;2023-02-11T10:16:27;102526.91;;;9.32;85.31
48888;BME280;42598;53.802;-1.632;2023-02-11T10:19:14;102510.78;;;9.48;84.44
48888;BME280;42598;53.802;-1.632;2023-02-11T10:21:50;102517.09;;;9.33;83.39
48888;BME280;42598;53.802;-1.632;2023-02-11T10:24:21;102516.39;;;10.84;74.94
48888;BME280;42598;53.802;-1.632;2023-02-11T10:26:50;102523.44;;;10.74;71.22
48888;BME280;42598;53.802;-1.632;2023-02-11T10:29:33;102529.44;;;9.29;73.02
48888;BME280;42598;53.802;-1.632;2023-02-11T10:32:05;102544.67;;;8.20;80.05
48888;BME280;42598;53.802;-1.632;2023-02-11T10:34:37;102546.85;;;7.65;82.16
48888;BME280;42598;53.802;-1.632;2023-02-11T10:37:08;102549.72;;;8.13;81.36
48888;BME280;42598;53.802;-1.632;2023-02-11T10:39:40;102542.97;;;8.20;80.05
48888;BME280;42598;53.802;-1.632;2023-02-11T10:42:10;102544.23;;;7.85;82.30
48888;BME280;42598;53.802;-1.632;2023-02-11T10:44:43;102543.96;;;7.95;80.67
48888;BME280;42598;53.802;-1.632;2023-02-11T10:47:19;102546.42;;;8.25;82.10
48888;BME280;42598;53.802;-1.632;2023-02-11T10:49:48;102561.25;;;6.78;91.40
48888;BME280;42598;53.802;-1.632;2023-02-11T10:52:20;102565.13;;;6.72;94.44
48888;BME280;42598;53.802;-1.632;2023-02-11T10:54:59;102573.60;;;6.71;94.42
48888;BME280;42598;53.802;-1.632;2023-02-11T10:57:30;102570.54;;;6.50;96.43
48888;BME280;42598;53.802;-1.632;2023-02-11T11:00:04;102577.23;;;6.73;94.98
48888;BME280;42598;53.802;-1.632;2023-02-11T11:02:35;102569.90;;;6.97;90.87
48888;BME280;42598;53.802;-1.632;2023-02-11T11:05:06;102567.53;;;6.97;89.95
48888;BME280;42598;53.802;-1.632;2023-02-11T11:07:51;102562.25;;;7.02;90.54
48888;BME280;42598;53.802;-1.632;2023-02-11T11:10:37;102562.59;;;7.11;87.13
48888;BME280;42598;53.802;-1.632;2023-02-11T11:13:07;102559.90;;;6.60;89.10
48888;BME280;42598;53.802;-1.632;2023-02-11T11:15:45;102548.69;;;7.12;87.28
48888;BME280;42598;53.802;-1.632;2023-02-11T11:18:19;102544.32;;;7.30;86.98
48888;BME280;42598;53.802;-1.632;2023-02-11T11:20:55;102545.15;;;7.14;85.00
48888;BME280;42598;53.802;-1.632;2023-02-11T11:23:23;102544.70;;;6.69;84.83
48888;BME280;42598;53.802;-1.632;2023-02-11T11:26:02;102550.85;;;7.40;82.51
48888;BME280;42598;53.802;-1.632;2023-02-11T11:28:35;102562.44;;;6.58;85.31
48888;BME280;42598;53.802;-1.632;2023-02-11T11:31:04;102560.64;;;7.72;82.53
48888;BME280;42598;53.802;-1.632;2023-02-11T11:33:33;102567.93;;;8.49;77.64
48888;BME280;42598;53.802;-1.632;2023-02-11T11:36:06;102572.78;;;8.54;75.95
48888;BME280;42598;53.802;-1.632;2023-02-11T11:38:36;102565.93;;;8.78;76.23
48888;BME280;42598;53.802;-1.632;2023-02-11T11:41:25;102557.65;;;8.76;74.14
48888;BME280;42598;53.802;-1.632;2023-02-11T11:43:58;102542.07;;;10.29;69.61
48888;BME280;42598;53.802;-1.632;2023-02-11T11:46:28;102540.23;;;9.33;69.90
48888;BME280;42598;53.802;-1.632;2023-02-11T11:49:03;102533.02;;;9.26;69.89
48888;BME280;42598;53.802;-1.632;2023-02-11T11:51:34;102527.07;;;7.80;75.66
48888;BME280;42598;53.802;-1.632;2023-02-11T11:54:06;102510.05;;;8.17;77.15
48888;BME280;42598;53.802;-1.632;2023-02-11T11:56:38;102503.22;;;8.62;76.23
48888;BME280;42598;53.802;-1.632;2023-02-11T11:59:10;102511.22;;;8.12;77.11
48888;BME280;42598;53.802;-1.632;2023-02-11T12:01:48;102524.70;;;8.88;75.07
48888;BME280;42598;53.802;-1.632;2023-02-11T12:04:32;102534.53;;;8.01;77.79
48888;BME280;42598;53.802;-1.632;2023-02-11T12:07:14;102541.41;;;8.29;76.39
48888;BME280;42598;53.802;-1.632;2023-02-11T12:10:09;102542.09;;;9.91;71.75
48888;BME280;42598;53.802;-1.632;2023-02-11T12:12:49;102538.31;;;8.02;74.86
48888;BME280;42598;53.802;-1.632;2023-02-11T12:15:30;102526.84;;;7.56;78.65
48888;BME280;42598;53.802;-1.632;2023-02-11T12:18:10;102524.08;;;8.26;77.33
48888;BME280;42598;53.802;-1.632;2023-02-11T12:20:51;102516.04;;;7.88;79.10
48888;BME280;42598;53.802;-1.632;2023-02-11T12:23:35;102518.22;;;8.67;77.75
48888;BME280;42598;53.802;-1.632;2023-02-11T12:26:10;102518.78;;;8.23;76.77
48888;BME280;42598;53.802;-1.632;2023-02-11T12:28:47;102523.02;;;7.57;81.62
48888;BME280;42598;53.802;-1.632;2023-02-11T12:31:29;102515.69;;;7.61;81.34
48888;BME280;42598;53.802;-1.632;2023-02-11T12:34:17;102511.20;;;7.83;82.79
48888;BME280;42598;53.802;-1.632;2023-02-11T12:36:57;102508.15;;;8.14;78.65
48888;BME280;42598;53.802;-1.632;2023-02-11T12:39:34;102504.36;;;7.48;81.29
48888;BME280;42598;53.802;-1.632;2023-02-11T12:42:23;102509.66;;;7.75;81.56
48888;BME280;42598;53.802;-1.632;2023-02-11T12:45:06;102518.63;;;8.46;77.47
48888;BME280;42598;53.802;-1.632;2023-02-11T12:47:42;102533.87;;;8.12;78.82
48888;BME280;42598;53.802;-1.632;2023-02-11T12:50:22;102539.02;;;7.69;78.90
48888;BME280;42598;53.802;-1.632;2023-02-11T12:53:05;102544.13;;;6.82;83.43
48888;BME280;42598;53.802;-1.632;2023-02-11T12:55:37;102541.40;;;7.90;80.43
48888;BME280;42598;53.802;-1.632;2023-02-11T12:58:13;102541.58;;;7.03;83.49
48888;BME280;42598;53.802;-1.632;2023-02-11T13:00:47;102534.88;;;7.18;81.95